الصفحة الرئيسية
METAR-TAF:

METAR-TAF

مطار :

مطار هنري كواندا الدولي

بوخارست, رومانيا

دائرة عرض: 44-33N, خط طول: 026-06E, ارتفاع: 95 متر

مراقبة الطقس الحالي

تاريخ ووقت الإصدار 10 دقيقة قبل الساعة 01:00UTC
ريح 4 عقدة من الشمال, الاتجاه يتراوح بين الشمال و الشمال الشرقي
درجة الحرارة 20°درجة مئوية
الرطوبة 78%
ضغط 1014 hPa
الرؤية 10 كم أو أكثر
الغيوم لا تقل 1500 م ولا وجود لمزنة ركامية السحاب الأسود

METAR: LROP 170100Z 36004KT 350V050 CAVOK 20/16 Q1014 NOSIG

زمن: 04:10 (01:10 UTC)

توقعات

تاريخ ووقت الإصدار 2ساعات و 10 دقيقة قبل الساعة 23:00UTC
التوقعات صالحة من17 الساعة 00 UTC إلى 17 الساعة 24 UTC
ريح 8 عقدة من الشمال الشرقي
الرؤية 10 كم أو أكثر
الغيوم لا تقل 1500 م ولا وجود لمزنة ركامية السحاب الأسود
مؤقت
من 17 الساعة 15 UTC إلى 17 الساعة 19 UTC
غيوم قليلة على ارتفاع 4000 قدم, مزنة ركامية.
نظرية الاحتمالات 30% :
مؤقت
من 17 الساعة 16 UTC إلى 17 الساعة 19 UTC
ريح 18 عقدةمن اتجاهات متغيرة
عاصفة رعدية, مطر خفيف

TAF: LROP 162300Z 1700/1724 04008KT CAVOK TEMPO 1715/1719 FEW040CB PROB30 TEMPO 1716/1719 VRB18KT -TSRA

أرصاد الطقس والتوقعات من أكثر من 4000 مطار (تقارير الطقس للمطار METAR والتنبؤ بالطقس بالمطارTAF).

المحطات المتاحة هي النقط الصفراء والحمراء على الخريطة.

حرك المؤشر فوق النقطة لمعرفة اسم المحطة.

ثم انقر لمعرفة أرصاد وتوقعات الطقس.

لتغيير الخارطة: اضغط على الأزرار الخضراء مع رمز الصليب الأسود للتكبير. على الزر الأخضر مع شرطة للتصغير، أو على الأسهم الخضراء للخرائط المجاورة.


METAR-TAF: